Storm Events Database

Event Details

Event Thunderstorm Wind
Magnitude 50 kts.
State MISSISSIPPI
County/Area CLARKE
WFO JAN
Begin Date 05/20/2010 21:30:00 CST-6
Begin Range 1
Begin Azimuth W
Begin Location SABLE
Begin Lat/Lon 32.2/-88.69
End Date 05/20/2010 21:30:00 CST-6
Deaths Direct/Indirect 0/0 (fatality details below, when available...)
Injuries Direct/Indirect 0/0
Property Damage 1.00K
Crop Damage 0.00K
Episode Narrative A potent mid May storm system, and weak surface front, brought widespread showers and thunderstorms to the area. Many of these storms reached severe limits and produced large hail and damaging winds. A lone tornado also touched down in Jones County and caused minor damage.
Event Narrative A couple trees were down across County Road 480 in northern Clarke County.


All events for this episode:

Location County/Zone St. Date Time T.Z. Type Mag Dth Inj PrD CrD
Totals: 0 0 363.10K 0.00K
NOXAPATER WINSTON CO. MS 05/20/2010 11:30 CST-6 Hail 1.00 in. 0 0 0.00K 0.00K
OSWEGO HOLMES CO. MS 05/20/2010 12:15 CST-6 Hail 1.00 in. 0 0 0.00K 0.00K
MAYHEW LOWNDES CO. MS 05/20/2010 12:18 CST-6 Hail 1.00 in. 0 0 0.00K 0.00K
CONEHATTA NEWTON CO. MS 05/20/2010 12:30 CST-6 Thunderstorm Wind 56 kts. EG 0 0 35.00K 0.00K
PAULETTE NOXUBEE CO. MS 05/20/2010 12:30 CST-6 Hail 0.75 in. 0 0 0.00K 0.00K
DAVIS MADISON CO. MS 05/20/2010 13:15 CST-6 Hail 1.00 in. 0 0 0.00K 0.00K
SANDERSVILLE JONES CO. MS 05/20/2010 13:47 CST-6 Hail 1.25 in. 0 0 0.00K 0.00K
BARNETT CLARKE CO. MS 05/20/2010 14:15 CST-6 Hail 1.00 in. 0 0 0.00K 0.00K
ELWOOD CLARKE CO. MS 05/20/2010 14:30 CST-6 Hail 0.75 in. 0 0 0.00K 0.00K
HEIDELBERG JASPER CO. MS 05/20/2010 14:32 CST-6 Hail 1.00 in. 0 0 0.00K 0.00K
HEIDELBERG JASPER CO. MS 05/20/2010 14:33 CST-6 Thunderstorm Wind 50 kts. EG 0 0 0.00K 0.00K
MARION LAUDERDALE CO. MS 05/20/2010 14:43 CST-6 Hail 1.00 in. 0 0 0.00K 0.00K
MARION LAUDERDALE CO. MS 05/20/2010 14:45 CST-6 Thunderstorm Wind 52 kts. EG 0 0 0.00K 0.00K
FAIRGROUNDS NESHOBA CO. MS 05/20/2010 15:05 CST-6 Hail 1.00 in. 0 0 0.00K 0.00K
CENTER RIDGE SMITH CO. MS 05/20/2010 15:15 CST-6 Thunderstorm Wind 56 kts. EG 0 0 75.00K 0.00K
CENTER RIDGE SMITH CO. MS 05/20/2010 15:17 CST-6 Hail 1.50 in. 0 0 0.00K 0.00K
DEEMER NESHOBA CO. MS 05/20/2010 15:20 CST-6 Thunderstorm Wind 50 kts. EG 0 0 0.00K 0.00K
OCOBLA NESHOBA CO. MS 05/20/2010 15:25 CST-6 Thunderstorm Wind 50 kts. EG 0 0 0.00K 0.00K
RALEIGH SMITH CO. MS 05/20/2010 15:27 CST-6 Hail 1.00 in. 0 0 0.00K 0.00K
MIZE SMITH CO. MS 05/20/2010 15:35 CST-6 Hail 1.00 in. 0 0 0.00K 0.00K
OVETT JONES CO. MS 05/20/2010 15:45 CST-6 Thunderstorm Wind 50 kts. EG 0 0 0.00K 0.00K
HOOKER LAWRENCE CO. MS 05/20/2010 15:54 CST-6 Hail 1.25 in. 0 0 0.00K 0.00K
ASHLEY COPIAH CO. MS 05/20/2010 15:59 CST-6 Hail 1.00 in. 0 0 0.00K 0.00K
NEWTON NEWTON CO. MS 05/20/2010 16:12 CST-6 Hail 1.00 in. 0 0 0.00K 0.00K
ELECTRIC MILLS KEMPER CO. MS 05/20/2010 16:17 CST-6 Thunderstorm Wind 50 kts. EG 0 0 0.00K 0.00K
STRINGER JASPER CO. MS 05/20/2010 17:12 CST-6 Hail 1.00 in. 0 0 0.00K 0.00K
REGANTON CLAIBORNE CO. MS 05/20/2010 17:58 CST-6 Hail 1.00 in. 0 0 0.00K 0.00K
EAGLE BEND WARREN CO. MS 05/20/2010 18:07 CST-6 Thunderstorm Wind 52 kts. EG 0 0 0.00K 0.00K
VICKSBURG WARREN CO. MS 05/20/2010 18:15 CST-6 Hail 0.75 in. 0 0 0.00K 0.00K
NEW BYRAM HINDS CO. MS 05/20/2010 18:16 CST-6 Hail 1.00 in. 0 0 0.00K 0.00K
EDWARDS HINDS CO. MS 05/20/2010 18:30 CST-6 Hail 1.00 in. 0 0 0.00K 0.00K
TINSLEY YAZOO CO. MS 05/20/2010 18:45 CST-6 Hail 1.00 in. 0 0 0.00K 0.00K
OAK BOWERY JONES CO. MS 05/20/2010 18:47 CST-6 Thunderstorm Wind 50 kts. EG 0 0 0.00K 0.00K
(PIB)PINE BELT RGNL JONES CO. MS 05/20/2010 18:50 CST-6 Lightning 0 0 100.00K 0.00K
TAWANTA JONES CO. MS 05/20/2010 18:53 CST-6 Hail 1.00 in. 0 0 0.00K 0.00K
(PIB)PINE BELT RGNL JONES CO. MS 05/20/2010 18:57 CST-6 Tornado EF0 0 0 40.00K 0.00K
REDDOCH JONES CO. MS 05/20/2010 18:58 CST-6 Lightning 0 0 80.00K 0.00K
MC DONALD NESHOBA CO. MS 05/20/2010 19:00 CST-6 Thunderstorm Wind 55 kts. EG 0 0 5.00K 0.00K
MOSELLE JONES CO. MS 05/20/2010 19:10 CST-6 Thunderstorm Wind 52 kts. EG 0 0 0.00K 0.00K
OCOBLA NESHOBA CO. MS 05/20/2010 19:11 CST-6 Hail 1.00 in. 0 0 0.00K 0.00K
TAWANTA JONES CO. MS 05/20/2010 19:20 CST-6 Flash Flood 0 0 10.00K 0.00K
GWINVILLE JEFFERSON DAVIS CO. MS 05/20/2010 20:11 CST-6 Thunderstorm Wind 46 kts. EG 0 0 1.00K 0.00K
RALEIGH SMITH CO. MS 05/20/2010 20:29 CST-6 Thunderstorm Wind 55 kts. EG 0 0 15.00K 0.00K
VOSSBURG JASPER CO. MS 05/20/2010 21:05 CST-6 Thunderstorm Wind 50 kts. EG 0 0 1.00K 0.00K
OKATIBBEE LAUDERDALE CO. MS 05/20/2010 21:25 CST-6 Thunderstorm Wind 50 kts. EG 0 0 0.00K 0.00K
LAUDERDALE LAUDERDALE CO. MS 05/20/2010 21:25 CST-6 Thunderstorm Wind 45 kts. EG 0 0 0.10K 0.00K
SABLE CLARKE CO. MS 05/20/2010 21:30 CST-6 Thunderstorm Wind 50 kts. EG 0 0 1.00K 0.00K
Totals: 0 0 363.10K 0.00K